createdAt,value
2017-04-30T00:00:13.166Z,99.99
2017-04-30T00:00:53.638Z,99.99
2017-04-30T00:01:34.147Z,99.99
2017-04-30T00:02:14.609Z,99.99
2017-04-30T00:02:55.095Z,99.99
2017-04-30T00:03:35.575Z,99.99
2017-04-30T00:04:16.050Z,99.99
2017-04-30T00:04:56.533Z,99.99
2017-04-30T00:05:37.051Z,99.99
2017-04-30T00:06:17.494Z,99.99
2017-04-30T00:06:58.008Z,99.99
2017-04-30T00:07:38.480Z,99.99
2017-04-30T00:08:18.990Z,99.99
2017-04-30T00:08:59.423Z,99.99
2017-04-30T00:09:39.889Z,99.99
2017-04-30T00:10:20.356Z,99.99
2017-04-30T00:11:00.879Z,99.99
2017-04-30T00:11:41.349Z,99.99
2017-04-30T00:12:21.844Z,99.99
2017-04-30T00:13:02.295Z,99.99
2017-04-30T00:13:42.808Z,99.99
2017-04-30T00:14:23.324Z,99.99
2017-04-30T00:15:03.798Z,99.99
2017-04-30T00:15:44.297Z,99.99
2017-04-30T00:16:24.765Z,99.99
2017-04-30T00:17:05.250Z,99.99
2017-04-30T00:17:45.715Z,99.99
2017-04-30T00:18:26.193Z,99.99
2017-04-30T00:19:06.677Z,99.99
2017-04-30T00:19:47.131Z,99.99
2017-04-30T00:20:27.614Z,99.99
2017-04-30T00:21:08.092Z,99.99
2017-04-30T00:21:48.597Z,99.99
2017-04-30T00:23:36.968Z,99.99
2017-04-30T00:24:18.849Z,99.99
2017-04-30T00:24:59.373Z,99.99
2017-04-30T00:25:39.819Z,99.99
2017-04-30T00:26:20.309Z,99.99
2017-04-30T00:27:00.761Z,99.99
2017-04-30T00:27:41.195Z,99.99
2017-04-30T00:28:21.647Z,99.99
2017-04-30T00:29:02.121Z,99.99
2017-04-30T00:29:42.610Z,99.99
2017-04-30T00:30:23.105Z,99.99
2017-04-30T00:31:03.591Z,99.99
2017-04-30T00:31:44.090Z,99.99
2017-04-30T00:32:24.531Z,99.99
2017-04-30T00:33:04.980Z,99.99
2017-04-30T00:33:45.457Z,99.99
2017-04-30T00:34:25.960Z,99.99
2017-04-30T00:35:06.433Z,99.99
2017-04-30T00:35:46.876Z,99.99
2017-04-30T00:36:27.355Z,99.99
2017-04-30T00:37:07.834Z,99.99
2017-04-30T00:37:48.318Z,99.99
2017-04-30T00:38:28.786Z,99.99
2017-04-30T00:39:09.246Z,99.99
2017-04-30T00:39:49.717Z,99.99
2017-04-30T00:40:30.236Z,99.99
2017-04-30T00:41:10.697Z,99.99
2017-04-30T00:41:51.212Z,99.99
2017-04-30T00:42:31.662Z,99.99
2017-04-30T00:43:12.140Z,99.99
2017-04-30T00:43:52.593Z,99.99
2017-04-30T00:44:33.083Z,99.99
2017-04-30T00:45:13.582Z,99.99
2017-04-30T00:45:54.053Z,99.99
2017-04-30T00:46:34.547Z,99.99
2017-04-30T00:47:15.005Z,99.99
2017-04-30T00:47:55.490Z,99.99
2017-04-30T00:48:35.959Z,99.99
2017-04-30T00:49:16.426Z,99.99
2017-04-30T00:49:56.918Z,99.99
2017-04-30T00:50:37.391Z,99.99
2017-04-30T00:51:17.890Z,99.99
2017-04-30T00:51:58.383Z,99.99
2017-04-30T00:52:38.878Z,99.99
2017-04-30T00:53:19.370Z,99.99
2017-04-30T00:53:59.839Z,99.99
2017-04-30T00:54:40.287Z,99.99
2017-04-30T00:55:20.754Z,99.99
2017-04-30T00:56:01.265Z,99.99
2017-04-30T00:56:41.748Z,99.99
2017-04-30T00:57:22.195Z,99.99
2017-04-30T00:58:02.665Z,99.99
2017-04-30T00:58:43.141Z,99.99
2017-04-30T00:59:23.642Z,99.99
2017-04-30T01:00:04.154Z,99.99
2017-04-30T01:00:44.620Z,99.99
2017-04-30T01:01:25.103Z,99.99
2017-04-30T01:02:05.599Z,99.99
2017-04-30T01:02:46.087Z,99.99
2017-04-30T01:03:26.552Z,99.99
2017-04-30T01:04:07.007Z,99.99
2017-04-30T01:04:47.523Z,99.99
2017-04-30T01:05:27.998Z,99.99
2017-04-30T01:06:08.529Z,99.99
2017-04-30T01:06:48.978Z,99.99
2017-04-30T01:07:29.459Z,99.99
2017-04-30T01:08:09.928Z,99.99
2017-04-30T01:08:50.406Z,99.99
2017-04-30T01:09:30.901Z,99.99
2017-04-30T01:10:11.368Z,99.99
2017-04-30T01:10:51.877Z,99.99
2017-04-30T01:11:32.359Z,99.99
2017-04-30T01:12:12.833Z,99.99
2017-04-30T01:12:53.303Z,99.99
2017-04-30T01:13:33.828Z,99.99
2017-04-30T01:14:14.322Z,99.99
2017-04-30T01:14:54.970Z,99.99
2017-04-30T01:15:35.450Z,99.99
2017-04-30T01:16:15.944Z,99.99
2017-04-30T01:16:56.423Z,99.99
2017-04-30T01:17:36.916Z,99.99
2017-04-30T01:18:17.397Z,99.99
2017-04-30T01:18:57.872Z,99.99
2017-04-30T01:19:38.365Z,99.99
2017-04-30T01:20:18.875Z,99.99
2017-04-30T01:20:59.396Z,99.99
2017-04-30T01:21:39.880Z,99.99
2017-04-30T01:22:20.346Z,99.99
2017-04-30T01:23:00.827Z,99.99
2017-04-30T01:23:41.290Z,99.99
2017-04-30T01:24:21.769Z,99.99
2017-04-30T01:25:02.263Z,99.99
2017-04-30T01:25:42.729Z,99.99
2017-04-30T01:26:23.198Z,99.99
2017-04-30T01:27:03.695Z,99.99
2017-04-30T01:27:44.175Z,99.99
2017-04-30T01:28:24.649Z,99.99
2017-04-30T01:29:05.123Z,99.99
2017-04-30T01:29:45.603Z,99.99
2017-04-30T01:30:26.100Z,99.99
2017-04-30T01:31:06.577Z,99.99
2017-04-30T01:31:47.033Z,99.99
2017-04-30T01:32:27.515Z,99.99
2017-04-30T01:33:07.992Z,99.99
2017-04-30T01:33:48.489Z,99.99
2017-04-30T01:34:28.956Z,99.99
2017-04-30T01:35:09.435Z,99.99
2017-04-30T01:35:49.915Z,99.99
2017-04-30T01:36:30.436Z,99.99
2017-04-30T01:37:10.920Z,99.99
2017-04-30T01:37:51.377Z,99.99
2017-04-30T01:38:31.864Z,99.99
2017-04-30T01:39:12.341Z,99.99
2017-04-30T01:39:52.850Z,99.99
2017-04-30T01:40:33.335Z,99.99
2017-04-30T01:41:13.823Z,99.99
2017-04-30T01:41:54.289Z,99.99
2017-04-30T01:42:34.882Z,99.99
2017-04-30T01:43:15.339Z,99.99
2017-04-30T01:43:55.806Z,99.99
2017-04-30T01:44:36.270Z,99.99
2017-04-30T01:45:16.742Z,99.99
2017-04-30T01:45:57.251Z,99.99
2017-04-30T01:46:37.728Z,99.99
2017-04-30T01:47:18.163Z,99.99
2017-04-30T01:47:58.718Z,99.99
2017-04-30T01:48:39.167Z,99.99
2017-04-30T01:49:19.627Z,99.99
2017-04-30T01:50:00.105Z,99.99
2017-04-30T01:50:40.567Z,99.99
2017-04-30T01:51:21.055Z,99.99
2017-04-30T01:52:01.510Z,99.99
2017-04-30T01:52:41.998Z,99.99
2017-04-30T01:53:22.460Z,99.99
2017-04-30T01:54:02.960Z,99.99
2017-04-30T01:54:43.435Z,99.99
2017-04-30T01:55:23.939Z,99.99
2017-04-30T01:56:04.429Z,99.99
2017-04-30T01:56:44.916Z,99.99
2017-04-30T01:57:25.416Z,99.99
2017-04-30T01:58:05.913Z,99.99
2017-04-30T01:58:46.400Z,99.99
2017-04-30T01:59:26.862Z,99.99
2017-04-30T02:00:07.358Z,99.99
2017-04-30T02:00:47.838Z,99.99
2017-04-30T02:01:28.334Z,99.99
2017-04-30T02:02:08.815Z,99.99
2017-04-30T02:02:49.300Z,99.99
2017-04-30T02:03:29.787Z,99.99
2017-04-30T02:04:10.266Z,99.99
2017-04-30T02:04:50.722Z,99.99
2017-04-30T02:05:31.238Z,99.99
2017-04-30T02:06:11.671Z,99.99
2017-04-30T02:06:52.160Z,99.99
2017-04-30T02:07:32.648Z,99.99
2017-04-30T02:08:13.098Z,99.99
2017-04-30T02:08:53.625Z,99.99
2017-04-30T02:09:34.128Z,99.99
2017-04-30T02:10:14.620Z,99.99
2017-04-30T02:10:55.114Z,99.99
2017-04-30T02:11:35.594Z,99.99
2017-04-30T02:12:16.061Z,99.99
2017-04-30T02:12:56.552Z,99.99
2017-04-30T02:13:37.029Z,99.99
2017-04-30T02:14:17.498Z,99.99
2017-04-30T02:14:57.965Z,99.99
2017-04-30T02:15:38.444Z,99.99
2017-04-30T02:16:18.910Z,99.99
2017-04-30T02:16:59.440Z,99.99
2017-04-30T02:17:39.912Z,99.99
2017-04-30T02:18:20.397Z,99.99
2017-04-30T02:19:00.892Z,99.99
2017-04-30T02:19:41.338Z,99.99
2017-04-30T02:20:21.812Z,99.99
2017-04-30T02:21:02.309Z,99.99
2017-04-30T02:21:42.765Z,99.99
2017-04-30T02:22:23.224Z,99.99
2017-04-30T02:23:03.719Z,99.99
2017-04-30T02:23:44.158Z,99.99
2017-04-30T02:24:24.668Z,99.99
2017-04-30T02:25:05.152Z,99.99
2017-04-30T02:25:45.593Z,99.99
2017-04-30T02:26:26.150Z,99.99
2017-04-30T02:27:06.604Z,99.99
2017-04-30T02:27:47.090Z,99.99
2017-04-30T02:28:27.583Z,99.99
2017-04-30T02:29:08.027Z,99.99
2017-04-30T02:29:48.538Z,99.99
2017-04-30T02:30:29.027Z,99.99
2017-04-30T02:31:09.474Z,99.99
2017-04-30T02:31:49.949Z,99.99
2017-04-30T02:32:30.415Z,99.99
2017-04-30T02:33:10.929Z,99.99
2017-04-30T02:33:51.451Z,99.99
2017-04-30T02:34:31.883Z,99.99
2017-04-30T02:35:12.365Z,99.99
2017-04-30T02:35:52.854Z,99.99
2017-04-30T02:36:33.353Z,99.99
2017-04-30T02:37:13.852Z,99.99
2017-04-30T02:37:54.337Z,99.99
2017-04-30T02:38:34.929Z,99.99
2017-04-30T02:40:29.964Z,99.99
2017-04-30T02:41:10.069Z,99.99
2017-04-30T02:41:50.538Z,99.99
2017-04-30T02:42:30.991Z,99.99
2017-04-30T02:43:11.490Z,99.99
2017-04-30T02:43:51.944Z,99.99
2017-04-30T02:44:32.391Z,99.99
2017-04-30T02:45:12.885Z,99.99
2017-04-30T02:45:53.365Z,99.99
2017-04-30T02:46:33.857Z,99.99
2017-04-30T02:47:14.353Z,99.99
2017-04-30T02:47:54.822Z,99.99
2017-04-30T02:48:35.339Z,99.99
2017-04-30T02:49:15.794Z,99.99
2017-04-30T02:49:56.272Z,99.99
2017-04-30T02:50:36.738Z,99.99
2017-04-30T02:51:17.227Z,99.99
2017-04-30T02:51:57.716Z,99.99
2017-04-30T02:52:38.212Z,99.99
2017-04-30T02:53:18.686Z,99.99
2017-04-30T02:53:59.159Z,99.99
2017-04-30T02:54:39.641Z,99.99
2017-04-30T02:55:20.131Z,99.99
2017-04-30T02:56:00.594Z,99.99
2017-04-30T02:56:41.102Z,99.99
2017-04-30T02:57:21.576Z,99.99
2017-04-30T02:58:02.050Z,99.99
2017-04-30T02:58:42.518Z,99.99
2017-04-30T02:59:22.972Z,99.99
2017-04-30T03:00:03.444Z,99.99
2017-04-30T03:00:43.973Z,99.99
2017-04-30T03:01:24.459Z,99.99
2017-04-30T03:02:04.944Z,99.99
2017-04-30T03:02:45.412Z,99.99
2017-04-30T03:03:25.915Z,99.99
2017-04-30T03:04:06.361Z,99.99
2017-04-30T03:04:46.835Z,99.99
2017-04-30T03:05:27.343Z,99.99
2017-04-30T03:06:07.820Z,99.99
2017-04-30T03:06:48.290Z,99.99
2017-04-30T03:07:28.843Z,99.99
2017-04-30T03:08:09.315Z,99.99
2017-04-30T03:08:49.793Z,99.99
2017-04-30T03:09:30.296Z,99.99
2017-04-30T03:10:10.746Z,99.99
2017-04-30T03:10:51.227Z,99.99
2017-04-30T03:11:31.688Z,99.99
2017-04-30T03:12:12.206Z,99.99
2017-04-30T03:12:52.686Z,99.99
2017-04-30T03:13:33.168Z,99.99
2017-04-30T03:14:13.630Z,99.99
2017-04-30T03:14:54.124Z,99.99
2017-04-30T03:15:34.565Z,99.99
2017-04-30T03:16:15.042Z,99.99
2017-04-30T03:16:55.507Z,99.99
2017-04-30T03:17:36.000Z,99.99
2017-04-30T03:18:16.476Z,99.99
2017-04-30T03:18:57.004Z,99.99
2017-04-30T03:19:37.457Z,99.99
2017-04-30T03:20:17.925Z,99.99
2017-04-30T03:20:58.422Z,99.99
2017-04-30T03:21:38.918Z,99.99
2017-04-30T03:22:19.364Z,99.99
2017-04-30T03:22:59.838Z,99.99
2017-04-30T03:23:40.327Z,99.99
2017-04-30T03:24:20.802Z,99.99
2017-04-30T03:25:01.286Z,99.99
2017-04-30T03:25:41.778Z,99.99
2017-04-30T03:26:22.239Z,99.99
2017-04-30T03:27:02.793Z,99.99
2017-04-30T03:27:43.248Z,99.99
2017-04-30T03:28:23.801Z,99.99
2017-04-30T03:29:04.314Z,99.99
2017-04-30T03:29:44.837Z,99.99
2017-04-30T03:30:25.320Z,99.99
2017-04-30T03:31:05.790Z,99.99
2017-04-30T03:31:46.251Z,99.99
2017-04-30T03:32:26.755Z,99.99
2017-04-30T03:33:07.220Z,99.99
2017-04-30T03:33:47.697Z,99.99
2017-04-30T03:34:28.197Z,99.99
2017-04-30T03:35:08.707Z,99.99
2017-04-30T03:35:49.129Z,99.99
2017-04-30T03:36:29.621Z,99.99
2017-04-30T03:37:11.918Z,99.99
2017-04-30T03:37:52.402Z,99.99
2017-04-30T03:38:32.964Z,99.99
2017-04-30T03:39:13.433Z,99.99
2017-04-30T03:39:53.921Z,99.99
2017-04-30T03:40:34.382Z,99.99
2017-04-30T03:41:14.847Z,99.99
2017-04-30T03:41:55.324Z,99.99
2017-04-30T03:42:35.791Z,99.99
2017-04-30T03:43:16.318Z,99.99
2017-04-30T03:43:56.782Z,99.99
2017-04-30T03:44:37.286Z,99.99
2017-04-30T03:45:17.747Z,99.99
2017-04-30T03:45:58.251Z,99.99
2017-04-30T03:46:38.777Z,99.99
2017-04-30T03:47:19.252Z,99.99
2017-04-30T03:47:59.714Z,99.99
2017-04-30T03:48:40.197Z,99.99
2017-04-30T03:49:20.676Z,99.99
2017-04-30T03:50:01.143Z,99.99
2017-04-30T03:50:41.618Z,99.99
2017-04-30T03:51:22.098Z,99.99
2017-04-30T03:52:02.581Z,99.99
2017-04-30T03:52:43.094Z,99.99
2017-04-30T03:53:23.583Z,99.99
2017-04-30T03:54:04.100Z,99.99
2017-04-30T03:54:44.590Z,99.99
2017-04-30T03:55:25.085Z,99.99
2017-04-30T03:56:05.568Z,99.99
2017-04-30T03:56:46.029Z,99.99
2017-04-30T03:57:26.543Z,99.99
2017-04-30T03:58:07.002Z,99.99
2017-04-30T03:58:47.520Z,99.99
2017-04-30T03:59:27.988Z,99.99
2017-04-30T04:00:08.476Z,99.99
2017-04-30T04:00:49.011Z,99.99
2017-04-30T04:01:29.491Z,99.99
2017-04-30T04:02:09.978Z,99.99
2017-04-30T04:02:50.466Z,99.99
2017-04-30T04:03:30.965Z,99.99
2017-04-30T04:04:11.434Z,99.99
2017-04-30T04:04:51.926Z,99.99
2017-04-30T04:05:32.389Z,99.99
2017-04-30T04:06:12.889Z,99.99
2017-04-30T04:06:53.385Z,99.99
2017-04-30T04:07:33.845Z,99.99
2017-04-30T04:08:14.322Z,99.99
2017-04-30T04:08:54.773Z,99.99
2017-04-30T04:09:35.286Z,99.99
2017-04-30T04:10:15.746Z,99.99
2017-04-30T04:10:56.233Z,99.99
2017-04-30T04:11:36.699Z,99.99
2017-04-30T04:12:17.181Z,99.99
2017-04-30T04:12:57.667Z,99.99
2017-04-30T04:13:38.138Z,99.99
2017-04-30T04:14:18.620Z,99.99
2017-04-30T04:14:59.104Z,99.99
2017-04-30T04:15:39.589Z,99.99
2017-04-30T04:16:20.066Z,99.99
2017-04-30T04:17:00.545Z,99.99
2017-04-30T04:17:41.003Z,99.99
2017-04-30T04:18:21.496Z,99.99
2017-04-30T04:19:01.993Z,99.99
2017-04-30T04:19:42.469Z,99.99
2017-04-30T04:20:22.935Z,99.99
2017-04-30T04:21:03.413Z,99.99
2017-04-30T04:21:43.927Z,99.99
2017-04-30T04:22:24.408Z,99.99
2017-04-30T04:23:04.861Z,99.99
2017-04-30T04:23:45.342Z,99.99
2017-04-30T04:24:25.842Z,99.99
2017-04-30T04:25:06.326Z,99.99
2017-04-30T04:25:46.819Z,99.99
2017-04-30T04:26:27.273Z,99.99
2017-04-30T04:27:07.758Z,99.99
2017-04-30T04:27:48.245Z,99.99
2017-04-30T04:28:28.696Z,99.99
2017-04-30T04:29:09.208Z,99.99
2017-04-30T04:29:49.665Z,99.99
2017-04-30T04:30:30.147Z,99.99
2017-04-30T04:31:10.622Z,99.99
2017-04-30T04:31:51.104Z,99.99
2017-04-30T04:32:31.579Z,99.99
2017-04-30T04:33:12.055Z,99.99
2017-04-30T04:33:52.505Z,99.99
2017-04-30T04:34:32.971Z,99.99
2017-04-30T04:35:13.430Z,99.99
2017-04-30T04:35:53.924Z,99.99
2017-04-30T04:36:34.394Z,99.99
2017-04-30T04:37:14.879Z,99.99
2017-04-30T04:37:55.364Z,99.99
2017-04-30T04:38:35.861Z,99.99
2017-04-30T04:39:16.372Z,99.99
2017-04-30T04:39:56.869Z,99.99
2017-04-30T04:40:37.361Z,99.99
2017-04-30T04:41:17.839Z,99.99
2017-04-30T04:41:58.314Z,99.99
2017-04-30T04:42:38.850Z,99.99
2017-04-30T04:43:19.327Z,99.99
2017-04-30T04:43:59.810Z,99.99
2017-04-30T04:44:40.290Z,99.99
2017-04-30T04:45:20.796Z,99.99
2017-04-30T04:46:01.262Z,99.99
2017-04-30T04:46:41.725Z,99.99
2017-04-30T04:47:22.201Z,99.99
2017-04-30T04:48:02.736Z,99.99
2017-04-30T04:48:43.181Z,99.99
2017-04-30T04:49:23.692Z,99.99
2017-04-30T04:50:04.137Z,99.99
2017-04-30T04:50:44.638Z,99.99
2017-04-30T04:51:25.119Z,99.99
2017-04-30T04:52:05.595Z,99.99
2017-04-30T04:52:46.099Z,99.99
2017-04-30T04:53:26.590Z,99.99
2017-04-30T04:54:07.056Z,99.99
2017-04-30T04:54:47.514Z,99.99
2017-04-30T04:55:27.970Z,99.99
2017-04-30T04:56:08.445Z,99.99
2017-04-30T04:56:48.933Z,99.99
2017-04-30T04:57:29.401Z,99.99
2017-04-30T04:58:09.902Z,99.99
2017-04-30T04:58:50.379Z,99.99
2017-04-30T04:59:30.890Z,99.99
2017-04-30T05:00:11.347Z,99.99
2017-04-30T05:00:51.835Z,99.99
2017-04-30T05:01:32.301Z,99.99
2017-04-30T05:02:12.798Z,99.99
2017-04-30T05:02:53.259Z,99.99
2017-04-30T05:03:33.739Z,99.99
2017-04-30T05:04:14.212Z,99.99
2017-04-30T05:04:54.703Z,99.99
2017-04-30T05:05:35.190Z,99.99
2017-04-30T05:06:15.689Z,99.99
2017-04-30T05:06:56.197Z,99.99
2017-04-30T05:07:36.646Z,99.99
2017-04-30T05:08:17.121Z,99.99
2017-04-30T05:08:57.628Z,99.99
2017-04-30T05:09:38.116Z,99.99
2017-04-30T05:10:18.558Z,99.99
2017-04-30T05:10:59.089Z,99.99
2017-04-30T05:11:39.585Z,99.99
2017-04-30T05:12:20.040Z,99.99
2017-04-30T05:13:00.521Z,99.99
2017-04-30T05:13:41.008Z,99.99
2017-04-30T05:14:21.497Z,99.99
2017-04-30T05:15:01.976Z,99.99
2017-04-30T05:15:42.450Z,99.99
2017-04-30T05:16:22.894Z,99.99
2017-04-30T05:17:03.410Z,99.99
2017-04-30T05:17:43.917Z,99.99
2017-04-30T05:18:24.391Z,99.99
2017-04-30T05:19:04.885Z,99.99
2017-04-30T05:19:45.380Z,99.99
2017-04-30T05:20:25.864Z,99.99
2017-04-30T05:21:06.358Z,99.99
2017-04-30T05:21:46.859Z,99.99
2017-04-30T05:22:27.337Z,99.99
2017-04-30T05:23:07.819Z,99.99
2017-04-30T05:23:48.314Z,99.99
2017-04-30T05:24:28.807Z,99.99
2017-04-30T05:25:09.368Z,99.99
2017-04-30T05:25:49.822Z,99.99
2017-04-30T05:26:30.308Z,99.99
2017-04-30T05:27:10.769Z,99.99
2017-04-30T05:27:51.240Z,99.99
2017-04-30T05:28:31.723Z,99.99
2017-04-30T05:29:12.225Z,99.99
2017-04-30T05:29:52.746Z,99.99
2017-04-30T05:30:33.243Z,99.99
2017-04-30T05:31:13.706Z,99.99
2017-04-30T05:31:54.225Z,99.99
2017-04-30T05:32:34.692Z,99.99
2017-04-30T05:33:15.162Z,99.99
2017-04-30T05:33:55.643Z,99.99
2017-04-30T05:34:36.141Z,99.99
2017-04-30T05:36:50.498Z,99.99
2017-04-30T05:37:30.997Z,99.99
2017-04-30T05:38:11.493Z,99.99
2017-04-30T05:38:51.982Z,99.99
2017-04-30T05:39:32.479Z,99.99
2017-04-30T05:40:12.957Z,99.99
2017-04-30T05:40:53.474Z,99.99
2017-04-30T05:41:33.976Z,99.99
2017-04-30T05:42:14.478Z,99.99
2017-04-30T05:42:54.962Z,99.99
2017-04-30T05:43:35.432Z,99.99
2017-04-30T05:44:15.926Z,99.99
2017-04-30T05:44:56.402Z,99.99
2017-04-30T05:45:36.850Z,99.99
2017-04-30T05:46:17.359Z,99.99
2017-04-30T05:46:57.808Z,99.99
2017-04-30T05:48:46.683Z,99.99
2017-04-30T05:49:27.154Z,99.99
2017-04-30T05:50:07.646Z,99.99
2017-04-30T05:50:48.137Z,99.99
2017-04-30T05:51:28.617Z,99.99
2017-04-30T05:52:09.093Z,99.99
2017-04-30T05:52:49.553Z,99.99
2017-04-30T05:55:08.059Z,99.99
2017-04-30T05:55:48.268Z,99.99
2017-04-30T05:56:28.747Z,99.99
2017-04-30T05:57:09.225Z,99.99
2017-04-30T05:57:49.721Z,99.99
2017-04-30T05:58:30.216Z,99.99
2017-04-30T05:59:10.698Z,99.99
2017-04-30T05:59:51.193Z,99.99
2017-04-30T06:00:31.704Z,99.99
2017-04-30T06:01:12.189Z,99.99
2017-04-30T06:01:52.693Z,99.99
2017-04-30T06:02:33.148Z,99.99
2017-04-30T06:03:13.666Z,99.99
2017-04-30T06:03:54.160Z,99.99
2017-04-30T06:04:34.660Z,99.99
2017-04-30T06:05:15.162Z,99.99
2017-04-30T06:05:55.654Z,99.99
2017-04-30T06:06:36.144Z,99.99
2017-04-30T06:07:16.664Z,99.99
2017-04-30T06:07:57.114Z,99.99
2017-04-30T06:08:37.602Z,99.99
2017-04-30T06:09:18.047Z,99.99
2017-04-30T06:09:58.520Z,99.99
2017-04-30T06:10:38.993Z,99.99
2017-04-30T06:11:19.488Z,99.99
2017-04-30T06:11:59.956Z,99.99
2017-04-30T06:12:40.446Z,99.99
2017-04-30T06:13:20.898Z,99.99
2017-04-30T06:14:01.381Z,99.99
2017-04-30T06:14:41.952Z,99.99
2017-04-30T06:15:22.423Z,99.99
2017-04-30T06:16:02.884Z,99.99
2017-04-30T06:16:43.389Z,99.99
2017-04-30T06:17:23.914Z,99.99
2017-04-30T06:18:04.346Z,99.99
2017-04-30T06:18:44.829Z,99.99
2017-04-30T06:19:25.349Z,99.99
2017-04-30T06:20:05.815Z,99.99
2017-04-30T06:20:46.326Z,99.99
2017-04-30T06:21:26.778Z,99.99
2017-04-30T06:22:07.272Z,99.99
2017-04-30T06:22:50.315Z,99.99
2017-04-30T06:23:30.808Z,99.99
2017-04-30T06:24:11.262Z,99.99
2017-04-30T06:24:51.757Z,99.99
2017-04-30T06:25:32.259Z,99.99
2017-04-30T06:26:12.766Z,99.99
2017-04-30T06:26:53.292Z,99.99
2017-04-30T06:27:33.749Z,99.99
2017-04-30T06:28:14.206Z,99.99
2017-04-30T06:28:54.731Z,99.99
2017-04-30T06:29:35.202Z,99.99
2017-04-30T06:30:15.670Z,99.99
2017-04-30T06:30:56.134Z,99.99
2017-04-30T06:31:36.636Z,99.99
2017-04-30T06:32:17.136Z,99.99
2017-04-30T06:32:57.656Z,99.99
2017-04-30T06:33:38.150Z,99.99
2017-04-30T06:34:18.616Z,99.99
2017-04-30T06:34:59.118Z,99.99
2017-04-30T06:35:39.615Z,99.99
2017-04-30T06:36:20.078Z,99.99
2017-04-30T06:37:00.559Z,99.99
2017-04-30T06:37:41.031Z,99.99
2017-04-30T06:38:21.523Z,99.99
2017-04-30T06:39:01.998Z,99.99
2017-04-30T06:39:42.530Z,99.99
2017-04-30T06:40:22.995Z,99.99
2017-04-30T06:41:03.480Z,99.99
2017-04-30T06:41:43.963Z,99.99
2017-04-30T06:42:24.464Z,99.99
2017-04-30T06:44:22.636Z,99.99
2017-04-30T06:45:03.069Z,99.99
2017-04-30T06:45:43.578Z,99.99
2017-04-30T06:46:24.070Z,99.99
2017-04-30T06:47:04.565Z,99.99
2017-04-30T06:47:45.040Z,99.99
2017-04-30T06:48:25.553Z,99.99
2017-04-30T06:49:06.034Z,99.99
2017-04-30T06:49:46.533Z,99.99
2017-04-30T06:50:26.994Z,99.99
2017-04-30T06:51:07.478Z,99.99
2017-04-30T06:51:47.997Z,99.99
2017-04-30T06:52:28.455Z,99.99
2017-04-30T06:53:08.980Z,99.99
2017-04-30T06:53:49.434Z,99.99
2017-04-30T06:54:29.903Z,99.99
2017-04-30T06:55:10.377Z,99.99
2017-04-30T06:55:50.872Z,99.99
2017-04-30T06:56:31.342Z,99.99
2017-04-30T06:57:11.825Z,99.99
2017-04-30T06:57:52.299Z,99.99
2017-04-30T06:58:32.783Z,99.99
2017-04-30T06:59:13.267Z,99.99
2017-04-30T06:59:53.750Z,99.99
2017-04-30T07:00:34.271Z,99.99
2017-04-30T07:01:14.761Z,99.99
2017-04-30T07:01:55.225Z,99.99
2017-04-30T07:02:35.702Z,99.99
2017-04-30T07:03:16.173Z,99.99
2017-04-30T07:03:56.644Z,99.99
2017-04-30T07:04:37.125Z,99.99
2017-04-30T07:05:17.564Z,99.99
2017-04-30T07:05:58.046Z,99.99
2017-04-30T07:06:38.527Z,99.99
2017-04-30T07:07:19.018Z,99.99
2017-04-30T07:07:59.497Z,99.99
2017-04-30T07:08:39.990Z,99.99
2017-04-30T07:09:20.425Z,99.99
2017-04-30T07:10:00.903Z,99.99
2017-04-30T07:10:41.396Z,99.99
2017-04-30T07:11:21.893Z,99.99
2017-04-30T07:12:02.361Z,99.99
2017-04-30T07:12:42.849Z,99.99
2017-04-30T07:13:23.333Z,99.99
2017-04-30T07:14:03.798Z,99.99
2017-04-30T07:14:44.282Z,99.99
2017-04-30T07:15:24.753Z,99.99
2017-04-30T07:16:05.262Z,99.99
2017-04-30T07:16:45.754Z,99.99
2017-04-30T07:17:26.241Z,99.99
2017-04-30T07:18:06.698Z,99.99
2017-04-30T07:18:47.195Z,99.99
2017-04-30T07:19:27.671Z,99.99
2017-04-30T07:20:08.141Z,99.99
2017-04-30T07:20:48.649Z,99.99
2017-04-30T07:21:29.159Z,99.99
2017-04-30T07:22:09.715Z,99.99
2017-04-30T07:22:50.350Z,99.99
2017-04-30T07:23:30.812Z,99.99
2017-04-30T07:24:11.288Z,99.99
2017-04-30T07:24:51.767Z,99.99
2017-04-30T07:25:32.246Z,99.99
2017-04-30T07:26:12.750Z,99.99
2017-04-30T07:26:59.837Z,99.99
2017-04-30T07:27:40.327Z,99.99
2017-04-30T07:28:20.795Z,99.99
2017-04-30T07:29:01.282Z,99.99
2017-04-30T07:29:41.794Z,99.99
2017-04-30T07:30:22.276Z,99.99
2017-04-30T07:31:02.753Z,99.99
2017-04-30T07:31:43.265Z,99.99
2017-04-30T07:32:23.778Z,99.99
2017-04-30T07:33:04.257Z,99.99
2017-04-30T07:33:44.736Z,99.99
2017-04-30T07:34:25.246Z,99.99
2017-04-30T07:35:05.721Z,99.99
2017-04-30T07:35:46.241Z,99.99
2017-04-30T07:36:26.720Z,99.99
2017-04-30T07:37:07.147Z,99.99
2017-04-30T07:37:47.629Z,99.99
2017-04-30T07:38:28.154Z,99.99
2017-04-30T07:39:08.627Z,99.99
2017-04-30T07:39:49.122Z,99.99
2017-04-30T07:40:29.595Z,99.99
2017-04-30T07:41:10.058Z,99.99
2017-04-30T07:41:50.634Z,99.99
2017-04-30T07:42:31.138Z,99.99
2017-04-30T07:43:11.634Z,99.99
2017-04-30T07:43:52.083Z,99.99
2017-04-30T07:44:32.575Z,99.99
2017-04-30T07:45:13.067Z,99.99
2017-04-30T07:45:53.527Z,99.99
2017-04-30T07:46:34.026Z,99.99
2017-04-30T07:47:14.519Z,99.99
2017-04-30T07:47:55.014Z,99.99
2017-04-30T07:48:35.484Z,99.99
2017-04-30T07:49:15.944Z,99.99
2017-04-30T07:49:56.443Z,99.99
2017-04-30T07:50:36.909Z,99.99
2017-04-30T07:51:17.395Z,99.99
2017-04-30T07:51:57.851Z,99.99
2017-04-30T07:52:38.353Z,99.99
2017-04-30T07:53:18.835Z,99.99
2017-04-30T07:53:59.331Z,99.99
2017-04-30T07:54:39.829Z,99.99
2017-04-30T07:55:20.305Z,99.99
2017-04-30T07:56:00.805Z,99.99
2017-04-30T07:56:41.283Z,99.99
2017-04-30T07:57:21.784Z,99.99
2017-04-30T07:58:02.247Z,99.99
2017-04-30T07:58:42.745Z,99.99
2017-04-30T07:59:23.212Z,99.99
2017-04-30T08:00:03.695Z,99.98
2017-04-30T08:00:44.202Z,99.98
2017-04-30T08:01:24.717Z,99.98
2017-04-30T08:02:05.148Z,99.98
2017-04-30T08:02:45.647Z,99.99
2017-04-30T08:03:26.138Z,99.79
2017-04-30T08:04:06.619Z,99.88
2017-04-30T08:04:47.123Z,99.88
2017-04-30T08:05:27.626Z,99.99
2017-04-30T08:06:08.124Z,99.79
2017-04-30T08:06:48.587Z,99.88
2017-04-30T08:07:29.092Z,99.99
2017-04-30T08:08:09.568Z,99.88
2017-04-30T08:08:50.046Z,99.99
2017-04-30T08:09:30.560Z,99.98
2017-04-30T08:10:11.044Z,99.12
2017-04-30T08:10:51.552Z,98.55
2017-04-30T08:11:32.047Z,98.74
2017-04-30T08:12:12.515Z,98.93
2017-04-30T08:12:53.039Z,98.08
2017-04-30T08:13:33.551Z,98.08
2017-04-30T08:14:14.043Z,98.27
2017-04-30T08:14:54.507Z,98.46
2017-04-30T08:15:34.972Z,98.17
2017-04-30T08:16:15.448Z,97.79
2017-04-30T08:16:55.935Z,98.17
2017-04-30T08:17:36.413Z,97.84
2017-04-30T08:18:16.882Z,97.36
2017-04-30T08:18:57.398Z,97.5
2017-04-30T08:19:37.890Z,97.41
2017-04-30T08:20:18.424Z,97.55
2017-04-30T08:20:58.961Z,97.36
2017-04-30T08:21:39.527Z,97.36
2017-04-30T08:22:20.034Z,96.89
2017-04-30T08:23:00.692Z,96.98
2017-04-30T08:23:41.167Z,96.12
2017-04-30T08:24:21.647Z,95.17
2017-04-30T08:25:02.123Z,94.6
2017-04-30T08:25:42.582Z,94.42
2017-04-30T08:26:23.072Z,93.84
2017-04-30T08:27:03.586Z,93.65
2017-04-30T08:27:44.070Z,93.84
2017-04-30T08:28:24.558Z,93.18
2017-04-30T08:29:05.065Z,91.94
2017-04-30T08:29:45.528Z,92.03
2017-04-30T08:30:26.026Z,91.56
2017-04-30T08:31:06.513Z,91.65
2017-04-30T08:31:46.994Z,91.65
2017-04-30T08:32:27.489Z,91.08
2017-04-30T08:33:07.951Z,90.51
2017-04-30T08:33:48.444Z,91.65
2017-04-30T08:34:28.959Z,91.94
2017-04-30T08:35:09.489Z,92.13
2017-04-30T08:35:49.982Z,92.6
2017-04-30T08:36:30.448Z,92.51
2017-04-30T08:37:10.935Z,93.08
2017-04-30T08:37:51.454Z,93.65
2017-04-30T08:38:31.919Z,93.32
2017-04-30T08:39:12.405Z,90.75
2017-04-30T08:39:52.888Z,88.84
2017-04-30T08:40:33.371Z,88.65
2017-04-30T08:41:13.837Z,88.18
2017-04-30T08:41:54.324Z,87.79
2017-04-30T08:42:34.811Z,87.03
2017-04-30T08:43:15.285Z,86.55
2017-04-30T08:43:55.775Z,87.23
2017-04-30T08:44:36.261Z,87.32
2017-04-30T08:45:16.742Z,88.27
2017-04-30T08:45:57.256Z,88.18
2017-04-30T08:46:37.761Z,88.46
2017-04-30T08:47:18.215Z,88.27
2017-04-30T08:47:58.712Z,88.46
2017-04-30T08:48:39.247Z,88.65
2017-04-30T08:49:19.695Z,88.37